Mexico V — XCKR — position and weather

sailwx.info

Track history (hours):
 
Tides and Currents Weather Stations Pressure Air Temp Water Temp Dewpoint Dewpoint Depression Visibility Wind Speed Wind Dir Waves Ship Positions

Mexico V

Last reported at 2015-Aug-03 01:33 UTC. Time now 2015-Aug-03 08:39 UTC.
Position N 20°33' W 086°59'.

Length 40 m; draft 1.5 m.

Type: Ship. MMSI: 345110005.

Date/timePositionNaut miles runAvg speedWind from/ knotsBaromVisibWave heightAir tempDewpointWater temp
2015-Aug-03 01:33N 20°33' W 086°59'3 1.4
2015-Aug-02 23:32N 20°31' W 086°57'0 0.1
2015-Aug-02 22:34N 20°31' W 086°57'0 0.0
2015-Aug-02 21:33N 20°31' W 086°57'0 0.0
2015-Aug-02 20:33N 20°31' W 086°57'0 0.0
2015-Aug-02 19:33N 20°31' W 086°57'2 1.1
2015-Aug-02 17:15N 20°33' W 086°59'1 0.4
2015-Aug-02 15:12N 20°32' W 086°58'1 1.2
2015-Aug-02 14:33N 20°31' W 086°58'1 0.7
2015-Aug-02 13:15N 20°32' W 086°58'2 2.5
2015-Aug-02 12:32N 20°31' W 086°57'0 0.0
2015-Aug-02 04:04N 20°31' W 086°57'2 3.7
2015-Aug-02 03:33N 20°32' W 086°58'1 0.7
2015-Aug-02 02:14N 20°33' W 086°59'3 4.0
2015-Aug-02 01:33N 20°31' W 086°57'2 1.6
2015-Aug-02 00:33N 20°32' W 086°58'0 0.1
2015-Aug-01 23:15N 20°32' W 086°58'1 1.5
2015-Aug-01 22:17N 20°31' W 086°57'0 0.0
2015-Aug-01 21:33N 20°31' W 086°57'0 0.0
2015-Aug-01 19:24N 20°31' W 086°57'0 0.1
2015-Aug-01 18:32N 20°31' W 086°57'2 2.5
2015-Aug-01 17:34N 20°32' W 086°59'1 0.5
2015-Aug-01 16:13N 20°32' W 086°58'2 0.8
2015-Aug-01 14:10N 20°31' W 086°57'1 1.0
2015-Aug-01 13:33N 20°31' W 086°58'1 0.9
2015-Aug-01 12:15N 20°32' W 086°58'2 2.7
2015-Aug-01 11:33N 20°31' W 086°57'0 0.0
2015-Aug-01 00:33N 20°31' W 086°57'0 0.0
2015-Jul-31 23:33N 20°31' W 086°57'1 0.3
2015-Jul-31 19:14N 20°32' W 086°58'0 0.2
2015-Jul-31 17:13N 20°32' W 086°58'1 0.4
2015-Jul-31 15:14N 20°32' W 086°58'1 1.3
2015-Jul-31 14:33N 20°32' W 086°58'0 0.3
2015-Jul-31 13:13N 20°32' W 086°58'2 1.8
2015-Jul-31 12:15N 20°31' W 086°57'2 0.2
2015-Jul-31 03:33N 20°32' W 086°58'1 0.4
2015-Jul-31 02:12N 20°32' W 086°59'2 3.2
2015-Jul-31 01:33N 20°31' W 086°57'0 0.1
2015-Jul-31 00:33N 20°31' W 086°57'0 0.0
2015-Jul-30 23:33N 20°31' W 086°57'2 2.0
2015-Jul-30 22:33N 20°32' W 086°58'1 0.6
2015-Jul-30 21:14N 20°33' W 086°59'0 0.2
2015-Jul-30 18:19N 20°33' W 086°59'1 0.9
2015-Jul-30 17:33N 20°32' W 086°59'1 0.9
2015-Jul-30 16:13N 20°31' W 086°58'1 0.7
2015-Jul-30 14:09N 20°31' W 086°57'2 2.9
2015-Jul-30 13:34N 20°32' W 086°58'0 0.2
2015-Jul-30 12:13N 20°32' W 086°58'2 2.9
2015-Jul-30 11:33N 20°31' W 086°57'0 0.0
2015-Jul-30 01:33N 20°31' W 086°57'0 0.0
2015-Jul-30 00:33N 20°31' W 086°57'0 0.0
2015-Jul-29 23:31N 20°31' W 086°57'0 0.0
2015-Jul-29 22:33N 20°31' W 086°57'0 0.0
2015-Jul-29 21:33N 20°31' W 086°57'1 1.3
2015-Jul-29 20:34N 20°32' W 086°58'1 0.8
2015-Jul-29 19:14N 20°32' W 086°59'0 0.1
2015-Jul-29 18:33N 20°32' W 086°59'1 0.5
2015-Jul-29 17:15N 20°32' W 086°58'0 0.2
2015-Jul-29 15:12N 20°32' W 086°59'0 0.1
2015-Jul-29 13:12N 20°32' W 086°59'2 3.0
2015-Jul-29 12:32N 20°31' W 086°57'0 0.1
2015-Jul-29 11:33N 20°31' W 086°57'1 0.1
2015-Jul-29 03:34N 20°32' W 086°58'2 1.6
2015-Jul-29 02:17N 20°33' W 086°59'3 4.0
2015-Jul-29 01:32N 20°31' W 086°57'0 0.1
2015-Jul-29 00:33N 20°31' W 086°57'0 0.0
2015-Jul-28 23:12N 20°31' W 086°57'2 3.3
2015-Jul-28 22:34N 20°32' W 086°58'1 0.6
2015-Jul-28 21:10N 20°32' W 086°58'1 0.4
2015-Jul-28 18:14N 20°33' W 086°59'4 0.7
2015-Jul-28 12:32N 20°29' W 086°58'0 0.0
2015-Jul-28 11:33N 20°29' W 086°58'2 0.2
2015-Jul-28 01:33N 20°31' W 086°57'0 0.0
2015-Jul-28 00:33N 20°31' W 086°57'0 0.1
2015-Jul-27 23:34N 20°31' W 086°57'0 0.1
2015-Jul-27 22:34N 20°31' W 086°57'0 0.0
2015-Jul-27 21:34N 20°31' W 086°57'2 2.4
2015-Jul-27 20:33N 20°32' W 086°59'0 0.3
2015-Jul-27 19:19N 20°33' W 086°59'1 0.5
2015-Jul-27 17:16N 20°32' W 086°58'2 0.5
2015-Jul-27 13:34N 20°30' W 086°57'0 0.0
2015-Jul-27 12:34N 20°30' W 086°57'0 0.3
2015-Jul-27 11:34N 20°31' W 086°57'1 0.1
2015-Jul-27 03:34N 20°32' W 086°58'1 0.6
2015-Jul-27 02:14N 20°32' W 086°58'2 2.9
2015-Jul-27 01:33N 20°31' W 086°57'0 0.1
2015-Jul-27 00:33N 20°31' W 086°57'0 0.0
2015-Jul-26 23:33N 20°31' W 086°57'0 0.0
2015-Jul-26 22:33N 20°31' W 086°57'0 0.0
2015-Jul-26 21:33N 20°31' W 086°57'0 0.0
2015-Jul-26 19:23N 20°31' W 086°57'0 0.1
2015-Jul-26 18:33N 20°31' W 086°57'1 1.3
2015-Jul-26 17:33N 20°32' W 086°58'1 0.5
2015-Jul-26 16:18N 20°32' W 086°58'2 1.0
2015-Jul-26 14:20N 20°31' W 086°57'2 1.0
2015-Jul-26 12:14N 20°32' W 086°59'2 3.1
2015-Jul-26 11:32N 20°31' W 086°57'3 0.3
2015-Jul-26 01:33N 20°33' W 086°59'1 0.6
2015-Jul-26 00:09N 20°33' W 086°59'2 3.7
2015-Jul-25 23:33N 20°31' W 086°57'0 0.1
2015-Jul-25 22:33N 20°31' W 086°57'0 0.0
2015-Jul-25 21:33N 20°31' W 086°57'0 0.0
2015-Jul-25 20:33N 20°31' W 086°57'0 0.0
2015-Jul-25 19:33N 20°31' W 086°57'0 0.0
2015-Jul-25 18:33N 20°31' W 086°57'0 0.0
2015-Jul-25 17:33N 20°31' W 086°57'3 1.3
2015-Jul-25 15:16N 20°33' W 086°59'0 0.2
2015-Jul-25 13:15N 20°33' W 086°59'2 2.9
2015-Jul-25 12:26N 20°31' W 086°57'0 0.1
2015-Jul-25 11:34N 20°31' W 086°57'2 0.3
2015-Jul-25 03:33N 20°33' W 086°58'0 0.3
2015-Jul-25 02:18N 20°33' W 086°59'2 3.2
2015-Jul-25 01:33N 20°31' W 086°57'0 0.1
2015-Jul-25 00:33N 20°31' W 086°57'0 0.1
2015-Jul-24 23:33N 20°31' W 086°57'0 0.0
2015-Jul-24 20:33N 20°31' W 086°57'0 0.0
2015-Jul-24 18:34N 20°31' W 086°57'3 1.2
2015-Jul-24 16:22N 20°33' W 086°59'1 0.2
2015-Jul-24 14:15N 20°32' W 086°58'0 0.4
2015-Jul-24 13:33N 20°32' W 086°59'0 0.3
2015-Jul-24 12:12N 20°32' W 086°58'2 2.4
2015-Jul-24 11:26N 20°31' W 086°57'  
Track history (hours):
 
Tides and Currents Weather Stations Pressure Air Temp Water Temp Dewpoint Dewpoint Depression Visibility Wind Speed Wind Dir Waves Ship Positions

Mexico V

Last reported at 2015-Aug-03 01:33 UTC. Time now 2015-Aug-03 08:39 UTC.
Position N 20°33' W 086°59'.

Length 40 m; draft 1.5 m.

Type: Ship. MMSI: 345110005.

Date/timePositionNaut miles runAvg speedWind from/ knotsBaromVisibWave heightAir tempDewpointWater temp
2015-Aug-03 01:33N 20°33' W 086°59'3 1.4
2015-Aug-02 23:32N 20°31' W 086°57'0 0.1
2015-Aug-02 22:34N 20°31' W 086°57'0 0.0
2015-Aug-02 21:33N 20°31' W 086°57'0 0.0
2015-Aug-02 20:33N 20°31' W 086°57'0 0.0
2015-Aug-02 19:33N 20°31' W 086°57'2 1.1
2015-Aug-02 17:15N 20°33' W 086°59'1 0.4
2015-Aug-02 15:12N 20°32' W 086°58'1 1.2
2015-Aug-02 14:33N 20°31' W 086°58'1 0.7
2015-Aug-02 13:15N 20°32' W 086°58'2 2.5
2015-Aug-02 12:32N 20°31' W 086°57'0 0.0
2015-Aug-02 04:04N 20°31' W 086°57'2 3.7
2015-Aug-02 03:33N 20°32' W 086°58'1 0.7
2015-Aug-02 02:14N 20°33' W 086°59'3 4.0
2015-Aug-02 01:33N 20°31' W 086°57'2 1.6
2015-Aug-02 00:33N 20°32' W 086°58'0 0.1
2015-Aug-01 23:15N 20°32' W 086°58'1 1.5
2015-Aug-01 22:17N 20°31' W 086°57'0 0.0
2015-Aug-01 21:33N 20°31' W 086°57'0 0.0
2015-Aug-01 19:24N 20°31' W 086°57'0 0.1
2015-Aug-01 18:32N 20°31' W 086°57'2 2.5
2015-Aug-01 17:34N 20°32' W 086°59'1 0.5
2015-Aug-01 16:13N 20°32' W 086°58'2 0.8
2015-Aug-01 14:10N 20°31' W 086°57'1 1.0
2015-Aug-01 13:33N 20°31' W 086°58'1 0.9
2015-Aug-01 12:15N 20°32' W 086°58'2 2.7
2015-Aug-01 11:33N 20°31' W 086°57'0 0.0
2015-Aug-01 00:33N 20°31' W 086°57'0 0.0
2015-Jul-31 23:33N 20°31' W 086°57'1 0.3
2015-Jul-31 19:14N 20°32' W 086°58'0 0.2
2015-Jul-31 17:13N 20°32' W 086°58'1 0.4
2015-Jul-31 15:14N 20°32' W 086°58'1 1.3
2015-Jul-31 14:33N 20°32' W 086°58'0 0.3
2015-Jul-31 13:13N 20°32' W 086°58'2 1.8
2015-Jul-31 12:15N 20°31' W 086°57'2 0.2
2015-Jul-31 03:33N 20°32' W 086°58'1 0.4
2015-Jul-31 02:12N 20°32' W 086°59'2 3.2
2015-Jul-31 01:33N 20°31' W 086°57'0 0.1
2015-Jul-31 00:33N 20°31' W 086°57'0 0.0
2015-Jul-30 23:33N 20°31' W 086°57'2 2.0
2015-Jul-30 22:33N 20°32' W 086°58'1 0.6
2015-Jul-30 21:14N 20°33' W 086°59'0 0.2
2015-Jul-30 18:19N 20°33' W 086°59'1 0.9
2015-Jul-30 17:33N 20°32' W 086°59'1 0.9
2015-Jul-30 16:13N 20°31' W 086°58'1 0.7
2015-Jul-30 14:09N 20°31' W 086°57'2 2.9
2015-Jul-30 13:34N 20°32' W 086°58'0 0.2
2015-Jul-30 12:13N 20°32' W 086°58'2 2.9
2015-Jul-30 11:33N 20°31' W 086°57'0 0.0
2015-Jul-30 01:33N 20°31' W 086°57'0 0.0
2015-Jul-30 00:33N 20°31' W 086°57'0 0.0
2015-Jul-29 23:31N 20°31' W 086°57'0 0.0
2015-Jul-29 22:33N 20°31' W 086°57'0 0.0
2015-Jul-29 21:33N 20°31' W 086°57'1 1.3
2015-Jul-29 20:34N 20°32' W 086°58'1 0.8
2015-Jul-29 19:14N 20°32' W 086°59'0 0.1
2015-Jul-29 18:33N 20°32' W 086°59'1 0.5
2015-Jul-29 17:15N 20°32' W 086°58'0 0.2
2015-Jul-29 15:12N 20°32' W 086°59'0 0.1
2015-Jul-29 13:12N 20°32' W 086°59'2 3.0
2015-Jul-29 12:32N 20°31' W 086°57'0 0.1
2015-Jul-29 11:33N 20°31' W 086°57'1 0.1
2015-Jul-29 03:34N 20°32' W 086°58'2 1.6
2015-Jul-29 02:17N 20°33' W 086°59'3 4.0
2015-Jul-29 01:32N 20°31' W 086°57'0 0.1
2015-Jul-29 00:33N 20°31' W 086°57'0 0.0
2015-Jul-28 23:12N 20°31' W 086°57'2 3.3
2015-Jul-28 22:34N 20°32' W 086°58'1 0.6
2015-Jul-28 21:10N 20°32' W 086°58'1 0.4
2015-Jul-28 18:14N 20°33' W 086°59'4 0.7
2015-Jul-28 12:32N 20°29' W 086°58'0 0.0
2015-Jul-28 11:33N 20°29' W 086°58'2 0.2
2015-Jul-28 01:33N 20°31' W 086°57'0 0.0
2015-Jul-28 00:33N 20°31' W 086°57'0 0.1
2015-Jul-27 23:34N 20°31' W 086°57'0 0.1
2015-Jul-27 22:34N 20°31' W 086°57'0 0.0
2015-Jul-27 21:34N 20°31' W 086°57'2 2.4
2015-Jul-27 20:33N 20°32' W 086°59'0 0.3
2015-Jul-27 19:19N 20°33' W 086°59'1 0.5
2015-Jul-27 17:16N 20°32' W 086°58'2 0.5
2015-Jul-27 13:34N 20°30' W 086°57'0 0.0
2015-Jul-27 12:34N 20°30' W 086°57'0 0.3
2015-Jul-27 11:34N 20°31' W 086°57'1 0.1
2015-Jul-27 03:34N 20°32' W 086°58'1 0.6
2015-Jul-27 02:14N 20°32' W 086°58'2 2.9
2015-Jul-27 01:33N 20°31' W 086°57'0 0.1
2015-Jul-27 00:33N 20°31' W 086°57'0 0.0
2015-Jul-26 23:33N 20°31' W 086°57'0 0.0
2015-Jul-26 22:33N 20°31' W 086°57'0 0.0
2015-Jul-26 21:33N 20°31' W 086°57'0 0.0
2015-Jul-26 19:23N 20°31' W 086°57'0 0.1
2015-Jul-26 18:33N 20°31' W 086°57'1 1.3
2015-Jul-26 17:33N 20°32' W 086°58'1 0.5
2015-Jul-26 16:18N 20°32' W 086°58'2 1.0
2015-Jul-26 14:20N 20°31' W 086°57'2 1.0
2015-Jul-26 12:14N 20°32' W 086°59'2 3.1
2015-Jul-26 11:32N 20°31' W 086°57'3 0.3
2015-Jul-26 01:33N 20°33' W 086°59'1 0.6
2015-Jul-26 00:09N 20°33' W 086°59'2 3.7
2015-Jul-25 23:33N 20°31' W 086°57'0 0.1
2015-Jul-25 22:33N 20°31' W 086°57'0 0.0
2015-Jul-25 21:33N 20°31' W 086°57'0 0.0
2015-Jul-25 20:33N 20°31' W 086°57'0 0.0
2015-Jul-25 19:33N 20°31' W 086°57'0 0.0
2015-Jul-25 18:33N 20°31' W 086°57'0 0.0
2015-Jul-25 17:33N 20°31' W 086°57'3 1.3
2015-Jul-25 15:16N 20°33' W 086°59'0 0.2
2015-Jul-25 13:15N 20°33' W 086°59'2 2.9
2015-Jul-25 12:26N 20°31' W 086°57'0 0.1
2015-Jul-25 11:34N 20°31' W 086°57'2 0.3
2015-Jul-25 03:33N 20°33' W 086°58'0 0.3
2015-Jul-25 02:18N 20°33' W 086°59'2 3.2
2015-Jul-25 01:33N 20°31' W 086°57'0 0.1
2015-Jul-25 00:33N 20°31' W 086°57'0 0.1
2015-Jul-24 23:33N 20°31' W 086°57'0 0.0
2015-Jul-24 20:33N 20°31' W 086°57'0 0.0
2015-Jul-24 18:34N 20°31' W 086°57'3 1.2
2015-Jul-24 16:22N 20°33' W 086°59'1 0.2
2015-Jul-24 14:15N 20°32' W 086°58'0 0.4
2015-Jul-24 13:33N 20°32' W 086°59'0 0.3
2015-Jul-24 12:12N 20°32' W 086°58'2 2.4
2015-Jul-24 11:26N 20°31' W 086°57'  

Dump ship's entire track history